Berlin, New Hampshire
Current Conditions -  °F | °C
As of 6:52 PM on Saturday 25 Oct 2014 (Local Time) from KBML Reporting Station
Overcast Overcast  
Wind Chill: 49°   Ceiling: 6000
Heat Index: 49°   Visibility: 10mi
Dew Point: 44°   Wind: 0mph
Humidity: 83%   Direction: NA
Pressure: 29.54"   Gusts: NA
Location:  44.47°N, 71.18°W
Report Text: KBML 252252Z AUTO 00000KT 10SM SCT043 OVC060 09/07 A2954 RMK AO2 SLP010 T00940067
Loading
Personal Weather Stations






























Interactive Weather Map
Tropical Storm Tracking
New forecast layout! Learn more

10-Day Weather Forecast

Advertisements
Track Severe Weather on mobile